createdAt,value
2018-11-14T00:04:10.636Z,3.90
2018-11-14T00:09:13.185Z,4.27
2018-11-14T00:14:16.329Z,4.80
2018-11-14T00:19:18.890Z,4.23
2018-11-14T00:24:21.445Z,3.13
2018-11-14T00:29:24.032Z,3.13
2018-11-14T00:34:26.877Z,2.33
2018-11-14T00:39:29.392Z,2.10
2018-11-14T00:44:32.015Z,3.30
2018-11-14T00:49:34.704Z,3.00
2018-11-14T00:54:37.285Z,2.67
2018-11-14T00:59:40.027Z,2.57
2018-11-14T01:04:42.585Z,2.67
2018-11-14T01:09:45.200Z,2.93
2018-11-14T01:14:47.764Z,3.23
2018-11-14T01:19:50.296Z,3.93
2018-11-14T01:24:52.856Z,6.93
2018-11-14T01:29:55.589Z,8.20
2018-11-14T01:34:58.092Z,7.63
2018-11-14T01:40:00.663Z,6.20
2018-11-14T01:45:06.800Z,4.93
2018-11-14T01:50:10.136Z,5.40
2018-11-14T01:55:13.888Z,4.07
2018-11-14T02:00:18.754Z,4.63
2018-11-14T02:05:21.340Z,4.40
2018-11-14T02:10:23.988Z,4.57
2018-11-14T02:15:26.531Z,4.23
2018-11-14T02:20:29.243Z,6.47
2018-11-14T02:25:31.906Z,4.17
2018-11-14T02:30:34.466Z,3.80
2018-11-14T02:35:37.152Z,3.27
2018-11-14T02:40:39.825Z,4.17
2018-11-14T02:45:42.522Z,3.33
2018-11-14T02:50:45.078Z,3.33
2018-11-14T02:55:56.695Z,3.80
2018-11-14T03:00:59.296Z,3.47
2018-11-14T03:06:01.872Z,3.80
2018-11-14T03:11:05.057Z,3.57
2018-11-14T03:16:07.881Z,3.63
2018-11-14T03:21:10.425Z,3.70
2018-11-14T03:26:12.977Z,5.53
2018-11-14T03:31:15.601Z,5.20
2018-11-14T03:36:21.128Z,4.60
2018-11-14T03:41:23.677Z,4.43
2018-11-14T03:46:26.223Z,3.90
2018-11-14T03:51:28.894Z,4.20
2018-11-14T03:56:31.483Z,3.50
2018-11-14T04:01:34.132Z,4.30
2018-11-14T04:06:36.713Z,4.80
2018-11-14T04:11:40.493Z,4.10
2018-11-14T04:16:43.126Z,6.30
2018-11-14T04:21:45.686Z,4.53
2018-11-14T04:26:48.260Z,4.10
2018-11-14T04:31:50.805Z,3.67
2018-11-14T04:36:53.349Z,3.70
2018-11-14T04:41:55.898Z,3.73
2018-11-14T04:46:58.443Z,3.93
2018-11-14T04:52:00.991Z,10.37
2018-11-14T04:57:03.667Z,12.70
2018-11-14T05:02:06.696Z,12.13
2018-11-14T05:07:09.397Z,13.83
2018-11-14T05:12:12.018Z,17.33
2018-11-14T05:17:14.616Z,16.60
2018-11-14T05:22:17.385Z,11.67
2018-11-14T05:27:19.936Z,11.33
2018-11-14T05:32:22.588Z,11.13
2018-11-14T05:37:25.156Z,12.93
2018-11-14T05:42:27.705Z,12.37
2018-11-14T05:47:30.263Z,14.47
2018-11-14T05:52:32.908Z,10.80
2018-11-14T05:57:35.471Z,17.10
2018-11-14T06:02:38.255Z,13.30
2018-11-14T06:07:40.848Z,22.47
2018-11-14T06:12:43.457Z,12.33
2018-11-14T06:17:46.810Z,12.37
2018-11-14T06:22:50.368Z,12.03
2018-11-14T06:27:54.620Z,12.97
2018-11-14T06:32:57.880Z,12.43
2018-11-14T06:38:00.596Z,13.17
2018-11-14T06:43:03.148Z,16.43
2018-11-14T06:48:05.900Z,16.33
2018-11-14T06:53:09.128Z,16.03
2018-11-14T06:58:11.776Z,18.43
2018-11-14T07:03:14.374Z,16.27
2018-11-14T07:08:16.924Z,15.93
2018-11-14T07:13:19.520Z,16.27
2018-11-14T07:18:22.461Z,15.93
2018-11-14T07:23:25.188Z,16.17
2018-11-14T07:28:30.632Z,15.67
2018-11-14T07:33:33.260Z,16.97
2018-11-14T07:38:40.749Z,15.70
2018-11-14T07:43:43.896Z,13.20
2018-11-14T07:48:47.617Z,15.47
2018-11-14T07:53:50.458Z,14.17
2018-11-14T07:58:53.162Z,11.53
2018-11-14T08:03:55.783Z,13.87
2018-11-14T08:08:59.023Z,15.17
2018-11-14T08:14:01.586Z,16.80
2018-11-14T08:19:04.845Z,11.40
2018-11-14T08:24:07.376Z,13.83
2018-11-14T08:29:09.917Z,14.13
2018-11-14T08:34:12.452Z,9.80
2018-11-14T08:39:15.041Z,11.13
2018-11-14T08:44:17.568Z,11.00
2018-11-14T08:49:20.102Z,10.80
2018-11-14T08:54:22.675Z,9.43
2018-11-14T08:59:25.230Z,8.63
2018-11-14T09:04:31.428Z,10.83
2018-11-14T09:09:34.007Z,11.83
2018-11-14T09:14:36.919Z,10.33
2018-11-14T09:19:40.028Z,7.17
2018-11-14T09:24:42.701Z,9.00
2018-11-14T09:29:45.313Z,7.67
2018-11-14T09:34:47.919Z,8.60
2018-11-14T09:39:50.576Z,9.23
2018-11-14T09:44:53.423Z,6.50
2018-11-14T09:49:55.991Z,6.93
2018-11-14T09:54:59.310Z,5.60
2018-11-14T10:00:01.968Z,6.60
2018-11-14T10:05:07.073Z,4.70
2018-11-14T10:10:11.437Z,4.90
2018-11-14T10:15:15.339Z,5.80
2018-11-14T10:20:19.233Z,6.67
2018-11-14T10:25:21.836Z,8.67
2018-11-14T10:30:25.773Z,7.23
2018-11-14T10:35:28.284Z,7.63
2018-11-14T10:40:30.863Z,8.57
2018-11-14T10:45:33.393Z,7.57
2018-11-14T10:50:35.973Z,7.17
2018-11-14T10:55:38.717Z,6.13
2018-11-14T11:00:47.828Z,6.30
2018-11-14T11:05:56.073Z,6.93
2018-11-14T11:11:04.424Z,7.33
2018-11-14T11:16:12.571Z,5.43
2018-11-14T11:21:15.159Z,7.03
2018-11-14T11:26:17.748Z,6.00
2018-11-14T11:31:20.356Z,5.30
2018-11-14T11:36:22.946Z,5.53
2018-11-14T11:41:25.937Z,11.20
2018-11-14T11:46:29.055Z,6.93
2018-11-14T11:51:31.641Z,4.43
2018-11-14T11:56:34.400Z,5.87
2018-11-14T12:01:36.982Z,1.80
2018-11-14T12:06:39.574Z,1.40
2018-11-14T12:11:42.145Z,1.47
2018-11-14T12:16:44.757Z,1.70
2018-11-14T12:21:47.380Z,1.70
2018-11-14T12:26:49.958Z,1.23
2018-11-14T12:31:53.430Z,1.53
2018-11-14T12:36:56.000Z,1.30
2018-11-14T12:41:58.545Z,1.10
2018-11-14T12:47:01.111Z,1.10
2018-11-14T12:52:03.764Z,1.30
2018-11-14T12:57:06.463Z,1.10
2018-11-14T13:02:09.157Z,1.33
2018-11-14T13:07:11.780Z,1.30
2018-11-14T13:12:14.528Z,0.90
2018-11-14T13:17:17.112Z,0.90
2018-11-14T13:22:20.689Z,1.37
2018-11-14T13:27:23.306Z,2.03
2018-11-14T13:32:25.881Z,2.27
2018-11-14T13:37:28.455Z,1.30
2018-11-14T13:42:31.100Z,1.93
2018-11-14T13:47:33.788Z,1.50
2018-11-14T13:52:36.383Z,1.33
2018-11-14T13:57:39.449Z,1.37
2018-11-14T14:02:42.772Z,1.03
2018-11-14T14:07:45.368Z,1.00
2018-11-14T14:12:49.364Z,1.00
2018-11-14T14:17:51.999Z,1.10
2018-11-14T14:22:55.270Z,1.40
2018-11-14T14:27:57.840Z,1.00
2018-11-14T14:33:00.565Z,1.00
2018-11-14T14:38:03.272Z,1.10
2018-11-14T14:43:05.760Z,2.00
2018-11-14T14:48:08.392Z,1.40
2018-11-14T14:53:10.967Z,1.20
2018-11-14T14:58:13.566Z,1.73
2018-11-14T15:03:16.232Z,1.80
2018-11-14T15:08:20.783Z,1.90
2018-11-14T15:13:23.392Z,2.43
2018-11-14T15:18:27.049Z,2.53
2018-11-14T15:23:29.664Z,3.07
2018-11-14T15:28:32.306Z,3.80
2018-11-14T15:33:35.384Z,3.53
2018-11-14T15:38:38.726Z,4.03
2018-11-14T15:43:41.548Z,4.23
2018-11-14T15:48:44.240Z,4.60
2018-11-14T15:53:50.202Z,5.27
2018-11-14T15:58:52.775Z,4.90
2018-11-14T16:03:55.395Z,4.70
2018-11-14T16:08:58.378Z,5.17
2018-11-14T16:14:01.729Z,5.37
2018-11-14T16:19:04.872Z,5.47
2018-11-14T16:24:07.475Z,7.57
2018-11-14T16:29:10.070Z,6.13
2018-11-14T16:34:12.624Z,6.60
2018-11-14T16:39:15.224Z,6.30
2018-11-14T16:44:17.929Z,6.70
2018-11-14T16:49:20.540Z,6.07
2018-11-14T16:54:23.130Z,6.60
2018-11-14T16:59:25.756Z,7.70
2018-11-14T17:04:28.479Z,6.53
2018-11-14T17:09:31.996Z,7.73
2018-11-14T17:14:34.555Z,6.73
2018-11-14T17:19:37.149Z,7.37
2018-11-14T17:24:39.730Z,7.07
2018-11-14T17:29:42.318Z,6.43
2018-11-14T17:34:44.947Z,6.10
2018-11-14T17:39:48.027Z,6.17
2018-11-14T17:44:50.694Z,6.97
2018-11-14T17:49:53.525Z,7.90
2018-11-14T17:54:56.238Z,6.50
2018-11-14T17:59:58.975Z,6.57
2018-11-14T18:05:02.025Z,6.30
2018-11-14T18:10:07.923Z,6.40
2018-11-14T18:15:11.464Z,6.67
2018-11-14T18:20:15.765Z,6.77
2018-11-14T18:25:19.285Z,7.23
2018-11-14T18:30:23.510Z,10.33
2018-11-14T18:35:26.732Z,8.73
2018-11-14T18:40:31.015Z,9.27
2018-11-14T18:45:35.140Z,9.03
2018-11-14T18:50:37.989Z,9.27
2018-11-14T18:55:40.671Z,9.57
2018-11-14T19:00:43.296Z,17.20
2018-11-14T19:05:46.263Z,15.03
2018-11-14T19:10:49.006Z,14.27
2018-11-14T19:15:51.629Z,11.43
2018-11-14T19:20:54.226Z,12.13
2018-11-14T19:25:56.880Z,26.63
2018-11-14T19:31:00.210Z,18.77
2018-11-14T19:36:02.870Z,24.63
2018-11-14T19:41:05.579Z,26.27
2018-11-14T19:46:08.965Z,19.80
2018-11-14T19:51:11.598Z,14.43
2018-11-14T19:56:14.188Z,11.13
2018-11-14T20:01:16.832Z,9.60
2018-11-14T20:06:19.426Z,11.63
2018-11-14T20:11:22.030Z,13.60
2018-11-14T20:16:24.662Z,12.73
2018-11-14T20:21:27.342Z,12.70
2018-11-14T20:26:29.920Z,11.20
2018-11-14T20:31:33.344Z,10.77
2018-11-14T20:36:35.964Z,11.37
2018-11-14T20:41:38.678Z,10.80
2018-11-14T20:46:41.428Z,10.80
2018-11-14T20:51:44.045Z,10.53
2018-11-14T20:56:46.679Z,10.73
2018-11-14T21:01:49.383Z,11.77
2018-11-14T21:06:51.979Z,10.97
2018-11-14T21:11:55.540Z,11.87
2018-11-14T21:16:58.256Z,10.50
2018-11-14T21:22:00.833Z,9.87
2018-11-14T21:27:03.488Z,9.33
2018-11-14T21:32:06.376Z,8.37
2018-11-14T21:37:09.375Z,10.00
2018-11-14T21:42:11.958Z,9.27
2018-11-14T21:47:14.539Z,10.07
2018-11-14T21:52:17.164Z,10.60
2018-11-14T21:57:19.716Z,13.47
2018-11-14T22:02:22.343Z,13.03
2018-11-14T22:07:24.910Z,12.93
2018-11-14T22:12:27.475Z,12.50
2018-11-14T22:17:30.034Z,13.23
2018-11-14T22:22:32.600Z,15.00
2018-11-14T22:27:35.246Z,15.53
2018-11-14T22:32:37.838Z,14.37
2018-11-14T22:37:40.632Z,15.23
2018-11-14T22:42:43.816Z,11.63
2018-11-14T22:47:46.754Z,16.67
2018-11-14T22:52:49.791Z,15.90
2018-11-14T22:57:52.900Z,13.40
2018-11-14T23:02:56.764Z,9.73
2018-11-14T23:07:59.898Z,9.00
2018-11-14T23:13:02.477Z,7.60
2018-11-14T23:18:05.391Z,8.43
2018-11-14T23:23:07.984Z,9.63
2018-11-14T23:28:10.508Z,9.67
2018-11-14T23:33:13.086Z,10.33
2018-11-14T23:38:15.799Z,11.27
2018-11-14T23:43:18.425Z,9.47
2018-11-14T23:48:21.020Z,10.67
2018-11-14T23:53:24.624Z,9.33
2018-11-14T23:58:27.284Z,8.07
